sensor_id;sensor_type;location;lat;lon;timestamp;pressure;altitude;pressure_sealevel;temperature;humidity
19827;BME280;10074;52.018;4.726;2023-05-18T00:01:34;46417.75;;;-144.79;98.65
19827;BME280;10074;52.018;4.726;2023-05-18T00:06:34;46463.88;;;-144.79;98.00
19827;BME280;10074;52.018;4.726;2023-05-18T00:11:35;46455.84;;;-144.79;98.82
19827;BME280;10074;52.018;4.726;2023-05-18T00:16:38;46439.81;;;-144.79;98.68
19827;BME280;10074;52.018;4.726;2023-05-18T00:21:42;46461.88;;;-144.79;98.33
19827;BME280;10074;52.018;4.726;2023-05-18T00:26:46;46487.94;;;-144.79;98.04
19827;BME280;10074;52.018;4.726;2023-05-18T00:31:47;46510.00;;;-144.79;98.11
19827;BME280;10074;52.018;4.726;2023-05-18T00:36:47;46483.94;;;-144.79;98.25
19827;BME280;10074;52.018;4.726;2023-05-18T00:41:48;46467.88;;;-144.79;98.63
19827;BME280;10074;52.018;4.726;2023-05-18T00:46:48;46532.06;;;-144.79;97.41
19827;BME280;10074;52.018;4.726;2023-05-18T00:51:49;46528.03;;;-144.79;98.03
19827;BME280;10074;52.018;4.726;2023-05-18T00:56:51;46528.03;;;-144.79;97.96
19827;BME280;10074;52.018;4.726;2023-05-18T01:01:52;46485.94;;;-144.79;98.12
19827;BME280;10074;52.018;4.726;2023-05-18T01:06:54;46528.03;;;-144.79;97.74
19827;BME280;10074;52.018;4.726;2023-05-18T01:12:20;46526.03;;;-144.79;98.13
19827;BME280;10074;52.018;4.726;2023-05-18T01:17:45;46499.97;;;-144.79;98.22
19827;BME280;10074;52.018;4.726;2023-05-18T01:28:17;46596.22;;;-144.79;97.47
19827;BME280;10074;52.018;4.726;2023-05-18T01:33:19;46618.28;;;-144.79;97.08
19827;BME280;10074;52.018;4.726;2023-05-18T01:38:22;46636.31;;;-144.79;97.01
19827;BME280;10074;52.018;4.726;2023-05-18T01:43:29;46632.31;;;-144.79;96.79
19827;BME280;10074;52.018;4.726;2023-05-18T01:48:31;46640.34;;;-144.79;96.85
19827;BME280;10074;52.018;4.726;2023-05-18T01:53:44;46616.28;;;-144.79;96.77
19827;BME280;10074;52.018;4.726;2023-05-18T01:58:46;46568.16;;;-144.79;97.67
19827;BME280;10074;52.018;4.726;2023-05-18T02:03:46;46646.34;;;-144.79;96.68
19827;BME280;10074;52.018;4.726;2023-05-18T02:08:47;46632.31;;;-144.79;96.83
19827;BME280;10074;52.018;4.726;2023-05-18T02:13:48;46638.34;;;-144.79;97.10
19827;BME280;10074;52.018;4.726;2023-05-18T02:18:48;46626.31;;;-144.79;97.10
19827;BME280;10074;52.018;4.726;2023-05-18T02:23:48;46620.28;;;-144.79;97.07
19827;BME280;10074;52.018;4.726;2023-05-18T02:28:48;46592.22;;;-144.79;97.44
19827;BME280;10074;52.018;4.726;2023-05-18T02:33:49;46596.22;;;-144.79;97.96
19827;BME280;10074;52.018;4.726;2023-05-18T02:38:49;46624.28;;;-144.79;97.33
19827;BME280;10074;52.018;4.726;2023-05-18T02:43:50;46652.38;;;-144.79;96.73
19827;BME280;10074;52.018;4.726;2023-05-18T02:48:50;46648.34;;;-144.79;97.18
19827;BME280;10074;52.018;4.726;2023-05-18T02:53:50;46676.44;;;-144.79;96.72
19827;BME280;10074;52.018;4.726;2023-05-18T02:58:51;46630.31;;;-144.79;97.14
19827;BME280;10074;52.018;4.726;2023-05-18T03:03:56;46652.38;;;-144.79;97.05
19827;BME280;10074;52.018;4.726;2023-05-18T03:08:57;46600.22;;;-144.79;97.60
19827;BME280;10074;52.018;4.726;2023-05-18T03:13:58;46640.34;;;-144.79;97.04
19827;BME280;10074;52.018;4.726;2023-05-18T03:18:58;46632.31;;;-144.79;97.50
19827;BME280;10074;52.018;4.726;2023-05-18T03:24:01;46644.34;;;-144.79;97.34
19827;BME280;10074;52.018;4.726;2023-05-18T03:29:02;46666.41;;;-144.79;97.03
19827;BME280;10074;52.018;4.726;2023-05-18T03:34:02;46694.47;;;-144.79;96.39
19827;BME280;10074;52.018;4.726;2023-05-18T03:39:05;46706.50;;;-144.79;96.66
19827;BME280;10074;52.018;4.726;2023-05-18T03:44:07;46720.53;;;-144.79;95.75
19827;BME280;10074;52.018;4.726;2023-05-18T03:49:07;46696.47;;;-144.79;95.93
19827;BME280;10074;52.018;4.726;2023-05-18T03:54:07;46710.53;;;-144.79;95.97
19827;BME280;10074;52.018;4.726;2023-05-18T03:59:08;46676.44;;;-144.79;96.87
19827;BME280;10074;52.018;4.726;2023-05-18T04:04:08;46652.38;;;-144.79;97.26
19827;BME280;10074;52.018;4.726;2023-05-18T04:09:09;46648.34;;;-144.79;96.79
19827;BME280;10074;52.018;4.726;2023-05-18T04:14:10;46676.44;;;-144.79;96.50
19827;BME280;10074;52.018;4.726;2023-05-18T04:19:11;46692.47;;;-144.79;96.25
19827;BME280;10074;52.018;4.726;2023-05-18T04:24:12;46620.28;;;-144.79;97.58
19827;BME280;10074;52.018;4.726;2023-05-18T04:29:13;46712.53;;;-144.79;96.60
19827;BME280;10074;52.018;4.726;2023-05-18T04:34:14;46692.47;;;-144.79;96.35
19827;BME280;10074;52.018;4.726;2023-05-18T04:39:16;46684.44;;;-144.79;97.21
19827;BME280;10074;52.018;4.726;2023-05-18T04:44:17;46632.31;;;-144.79;97.69
19827;BME280;10074;52.018;4.726;2023-05-18T04:49:19;46636.31;;;-144.79;97.57
19827;BME280;10074;52.018;4.726;2023-05-18T04:54:23;46642.34;;;-144.79;97.74
19827;BME280;10074;52.018;4.726;2023-05-18T04:59:24;46644.34;;;-144.79;97.53
19827;BME280;10074;52.018;4.726;2023-05-18T05:04:25;46614.28;;;-144.79;98.08
19827;BME280;10074;52.018;4.726;2023-05-18T05:09:25;46654.38;;;-144.79;97.70
19827;BME280;10074;52.018;4.726;2023-05-18T05:14:26;46656.38;;;-144.79;97.26
19827;BME280;10074;52.018;4.726;2023-05-18T05:19:26;46636.31;;;-144.79;97.87
19827;BME280;10074;52.018;4.726;2023-05-18T05:24:27;46572.16;;;-144.79;98.48
19827;BME280;10074;52.018;4.726;2023-05-18T05:29:27;46594.22;;;-144.79;98.59
19827;BME280;10074;52.018;4.726;2023-05-18T05:34:27;46548.09;;;-144.79;98.68
19827;BME280;10074;52.018;4.726;2023-05-18T05:39:27;46524.03;;;-144.79;99.36
19827;BME280;10074;52.018;4.726;2023-05-18T05:44:28;46495.97;;;-144.79;99.42
19827;BME280;10074;52.018;4.726;2023-05-18T05:49:28;46506.00;;;-144.79;99.07
19827;BME280;10074;52.018;4.726;2023-05-18T05:54:28;46508.00;;;-144.79;99.09
19827;BME280;10074;52.018;4.726;2023-05-18T05:59:29;46524.03;;;-144.79;99.63
19827;BME280;10074;52.018;4.726;2023-05-18T06:04:29;46481.91;;;-144.79;99.80
19827;BME280;10074;52.018;4.726;2023-05-18T06:09:29;46403.72;;;-144.79;100.00
19827;BME280;10074;52.018;4.726;2023-05-18T06:14:30;46407.72;;;-144.79;100.00
19827;BME280;10074;52.018;4.726;2023-05-18T06:19:30;46385.69;;;-144.79;100.00
19827;BME280;10074;52.018;4.726;2023-05-18T06:24:30;46365.63;;;-144.79;100.00
19827;BME280;10074;52.018;4.726;2023-05-18T06:29:31;46319.50;;;-144.79;100.00
19827;BME280;10074;52.018;4.726;2023-05-18T06:34:31;46291.44;;;-144.79;100.00
19827;BME280;10074;52.018;4.726;2023-05-18T06:39:32;46283.41;;;-144.79;100.00
19827;BME280;10074;52.018;4.726;2023-05-18T06:44:32;46247.31;;;-144.79;100.00
19827;BME280;10074;52.018;4.726;2023-05-18T06:49:34;46257.34;;;-144.79;100.00
19827;BME280;10074;52.018;4.726;2023-05-18T06:54:37;46251.34;;;-144.79;100.00
19827;BME280;10074;52.018;4.726;2023-05-18T06:59:37;46251.34;;;-144.79;100.00
19827;BME280;10074;52.018;4.726;2023-05-18T07:04:37;46231.28;;;-144.79;100.00
19827;BME280;10074;52.018;4.726;2023-05-18T07:09:38;46235.28;;;-144.79;100.00
19827;BME280;10074;52.018;4.726;2023-05-18T07:14:38;46227.28;;;-144.79;100.00
19827;BME280;10074;52.018;4.726;2023-05-18T07:19:39;46217.25;;;-144.79;100.00
19827;BME280;10074;52.018;4.726;2023-05-18T07:24:39;46219.25;;;-144.79;100.00
19827;BME280;10074;52.018;4.726;2023-05-18T07:29:39;46227.28;;;-144.79;100.00
19827;BME280;10074;52.018;4.726;2023-05-18T07:34:40;46247.31;;;-144.79;100.00
19827;BME280;10074;52.018;4.726;2023-05-18T07:39:42;46199.19;;;-144.79;100.00
19827;BME280;10074;52.018;4.726;2023-05-18T07:44:43;46215.25;;;-144.79;100.00
19827;BME280;10074;52.018;4.726;2023-05-18T07:49:43;46227.28;;;-144.79;100.00
19827;BME280;10074;52.018;4.726;2023-05-18T07:54:43;46229.28;;;-144.79;100.00
19827;BME280;10074;52.018;4.726;2023-05-18T07:59:44;46237.31;;;-144.79;100.00
19827;BME280;10074;52.018;4.726;2023-05-18T08:04:45;46219.25;;;-144.79;100.00
19827;BME280;10074;52.018;4.726;2023-05-18T08:09:45;46241.31;;;-144.79;100.00
19827;BME280;10074;52.018;4.726;2023-05-18T08:14:47;46243.31;;;-144.79;100.00
19827;BME280;10074;52.018;4.726;2023-05-18T08:19:47;46205.22;;;-144.79;100.00
19827;BME280;10074;52.018;4.726;2023-05-18T08:24:48;46231.28;;;-144.79;100.00
19827;BME280;10074;52.018;4.726;2023-05-18T08:29:48;46287.44;;;-144.79;100.00
19827;BME280;10074;52.018;4.726;2023-05-18T08:34:48;46335.53;;;-144.79;100.00
19827;BME280;10074;52.018;4.726;2023-05-18T08:39:50;46447.84;;;-144.79;99.86
19827;BME280;10074;52.018;4.726;2023-05-18T08:45:10;46528.03;;;-144.79;98.81
19827;BME280;10074;52.018;4.726;2023-05-18T08:50:14;46612.25;;;-144.79;97.77
19827;BME280;10074;52.018;4.726;2023-05-18T08:55:17;46640.34;;;-144.79;97.23
19827;BME280;10074;52.018;4.726;2023-05-18T09:00:18;46680.44;;;-144.79;96.49
19827;BME280;10074;52.018;4.726;2023-05-18T09:05:19;46666.41;;;-144.79;96.58
19827;BME280;10074;52.018;4.726;2023-05-18T09:10:21;46752.63;;;-144.79;95.49
19827;BME280;10074;52.018;4.726;2023-05-18T09:15:23;46736.59;;;-144.79;95.70
19827;BME280;10074;52.018;4.726;2023-05-18T09:20:25;46714.53;;;-144.79;95.25
19827;BME280;10074;52.018;4.726;2023-05-18T09:25:26;46740.59;;;-144.79;95.47
19827;BME280;10074;52.018;4.726;2023-05-18T09:30:29;46774.69;;;-144.79;94.31
19827;BME280;10074;52.018;4.726;2023-05-18T09:35:30;46772.69;;;-144.79;94.29
19827;BME280;10074;52.018;4.726;2023-05-18T09:40:30;46784.72;;;-144.79;94.07
19827;BME280;10074;52.018;4.726;2023-05-18T09:45:31;46760.66;;;-144.79;94.33
19827;BME280;10074;52.018;4.726;2023-05-18T09:50:32;46704.50;;;-144.79;95.03
19827;BME280;10074;52.018;4.726;2023-05-18T09:55:35;46628.31;;;-144.79;95.93
19827;BME280;10074;52.018;4.726;2023-05-18T10:00:40;46644.34;;;-144.79;95.68
19827;BME280;10074;52.018;4.726;2023-05-18T10:05:41;46614.28;;;-144.79;96.64
19827;BME280;10074;52.018;4.726;2023-05-18T10:10:48;46520.03;;;-144.79;97.66
19827;BME280;10074;52.018;4.726;2023-05-18T10:15:50;46459.88;;;-144.79;97.92
19827;BME280;10074;52.018;4.726;2023-05-18T10:20:55;46423.78;;;-144.79;98.04
19827;BME280;10074;52.018;4.726;2023-05-18T10:25:56;46427.78;;;-144.79;98.33
19827;BME280;10074;52.018;4.726;2023-05-18T10:30:58;46407.72;;;-144.79;97.81
19827;BME280;10074;52.018;4.726;2023-05-18T10:36:02;46355.59;;;-144.79;98.75
19827;BME280;10074;52.018;4.726;2023-05-18T10:41:04;46367.63;;;-144.79;98.29
19827;BME280;10074;52.018;4.726;2023-05-18T10:46:05;46347.56;;;-144.79;98.40
19827;BME280;10074;52.018;4.726;2023-05-18T10:51:07;46389.69;;;-144.79;97.90
19827;BME280;10074;52.018;4.726;2023-05-18T10:56:08;46419.75;;;-144.79;97.59
19827;BME280;10074;52.018;4.726;2023-05-18T11:01:09;46453.84;;;-144.79;97.12
19827;BME280;10074;52.018;4.726;2023-05-18T11:06:12;46552.09;;;-144.79;96.23
19827;BME280;10074;52.018;4.726;2023-05-18T11:11:14;46644.34;;;-144.79;95.29
19827;BME280;10074;52.018;4.726;2023-05-18T11:16:16;46702.50;;;-144.79;93.89
19827;BME280;10074;52.018;4.726;2023-05-18T11:26:27;46756.66;;;-144.79;92.25
19827;BME280;10074;52.018;4.726;2023-05-18T11:31:46;46788.72;;;-144.79;91.21
19827;BME280;10074;52.018;4.726;2023-05-18T11:36:54;46788.72;;;-144.79;90.93
19827;BME280;10074;52.018;4.726;2023-05-18T11:42:00;46792.75;;;-144.79;90.32
19827;BME280;10074;52.018;4.726;2023-05-18T11:47:10;46810.78;;;-144.79;89.81
19827;BME280;10074;52.018;4.726;2023-05-18T11:52:18;46796.75;;;-144.79;89.23
19827;BME280;10074;52.018;4.726;2023-05-18T11:57:24;46768.69;;;-144.79;89.05
19827;BME280;10074;52.018;4.726;2023-05-18T12:02:29;46772.69;;;-144.79;88.74
19827;BME280;10074;52.018;4.726;2023-05-18T12:07:30;46808.78;;;-144.79;88.50
19827;BME280;10074;52.018;4.726;2023-05-18T12:12:32;46800.75;;;-144.79;88.30
19827;BME280;10074;52.018;4.726;2023-05-18T12:17:47;46810.78;;;-144.79;87.29
19827;BME280;10074;52.018;4.726;2023-05-18T12:22:49;46794.75;;;-144.79;87.81
19827;BME280;10074;52.018;4.726;2023-05-18T12:27:52;46790.72;;;-144.79;87.57
19827;BME280;10074;52.018;4.726;2023-05-18T12:32:54;46794.75;;;-144.79;87.32
19827;BME280;10074;52.018;4.726;2023-05-18T12:37:56;46824.81;;;-144.79;87.29
19827;BME280;10074;52.018;4.726;2023-05-18T12:42:59;46792.75;;;-144.79;86.55
19827;BME280;10074;52.018;4.726;2023-05-18T12:48:07;46786.72;;;-144.79;88.01
19827;BME280;10074;52.018;4.726;2023-05-18T12:53:07;46764.66;;;-144.79;88.29
19827;BME280;10074;52.018;4.726;2023-05-18T12:58:12;46794.75;;;-144.79;88.31
19827;BME280;10074;52.018;4.726;2023-05-18T13:03:17;46762.66;;;-144.79;88.89
19827;BME280;10074;52.018;4.726;2023-05-18T13:08:19;46760.66;;;-144.79;88.84
19827;BME280;10074;52.018;4.726;2023-05-18T13:13:22;46756.66;;;-144.79;89.14
19827;BME280;10074;52.018;4.726;2023-05-18T13:18:23;46734.59;;;-144.79;89.50
19827;BME280;10074;52.018;4.726;2023-05-18T13:23:25;46724.56;;;-144.79;90.34
19827;BME280;10074;52.018;4.726;2023-05-18T13:28:26;46710.53;;;-144.79;90.52
19827;BME280;10074;52.018;4.726;2023-05-18T13:33:26;46704.50;;;-144.79;90.88
19827;BME280;10074;52.018;4.726;2023-05-18T13:38:26;46670.41;;;-144.79;90.97
19827;BME280;10074;52.018;4.726;2023-05-18T13:43:27;46716.53;;;-144.79;90.70
19827;BME280;10074;52.018;4.726;2023-05-18T13:48:27;46708.50;;;-144.79;90.61
19827;BME280;10074;52.018;4.726;2023-05-18T13:53:28;46748.63;;;-144.79;90.26
19827;BME280;10074;52.018;4.726;2023-05-18T13:58:28;46744.63;;;-144.79;90.05
19827;BME280;10074;52.018;4.726;2023-05-18T14:03:29;46746.63;;;-144.79;89.63
19827;BME280;10074;52.018;4.726;2023-05-18T14:08:30;46766.66;;;-144.79;88.88
19827;BME280;10074;52.018;4.726;2023-05-18T14:13:30;46764.66;;;-144.79;88.93
19827;BME280;10074;52.018;4.726;2023-05-18T14:18:30;46796.75;;;-144.79;88.34
19827;BME280;10074;52.018;4.726;2023-05-18T14:23:30;46796.75;;;-144.79;88.25
19827;BME280;10074;52.018;4.726;2023-05-18T14:28:31;46772.69;;;-144.79;88.02
19827;BME280;10074;52.018;4.726;2023-05-18T14:33:31;46794.75;;;-144.79;87.89
19827;BME280;10074;52.018;4.726;2023-05-18T14:38:31;46788.72;;;-144.79;88.43
19827;BME280;10074;52.018;4.726;2023-05-18T14:43:32;46772.69;;;-144.79;88.61
19827;BME280;10074;52.018;4.726;2023-05-18T14:48:32;46748.63;;;-144.79;88.96
19827;BME280;10074;52.018;4.726;2023-05-18T14:53:32;46736.59;;;-144.79;89.48
19827;BME280;10074;52.018;4.726;2023-05-18T14:58:33;46722.56;;;-144.79;89.56
19827;BME280;10074;52.018;4.726;2023-05-18T15:03:33;46764.66;;;-144.79;89.87
19827;BME280;10074;52.018;4.726;2023-05-18T15:08:33;46716.53;;;-144.79;90.20
19827;BME280;10074;52.018;4.726;2023-05-18T15:13:34;46718.53;;;-144.79;90.22
19827;BME280;10074;52.018;4.726;2023-05-18T15:18:34;46708.50;;;-144.79;90.45
19827;BME280;10074;52.018;4.726;2023-05-18T15:23:34;46680.44;;;-144.79;90.83
19827;BME280;10074;52.018;4.726;2023-05-18T15:28:35;46684.44;;;-144.79;91.37
19827;BME280;10074;52.018;4.726;2023-05-18T15:33:35;46628.31;;;-144.79;91.89
19827;BME280;10074;52.018;4.726;2023-05-18T15:38:40;46578.19;;;-144.79;92.41
19827;BME280;10074;52.018;4.726;2023-05-18T15:43:41;46596.22;;;-144.79;92.39
19827;BME280;10074;52.018;4.726;2023-05-18T15:48:42;46608.25;;;-144.79;92.41
19827;BME280;10074;52.018;4.726;2023-05-18T15:53:42;46712.53;;;-144.79;91.32
19827;BME280;10074;52.018;4.726;2023-05-18T15:58:43;46724.56;;;-144.79;89.79
19827;BME280;10074;52.018;4.726;2023-05-18T16:03:43;46768.69;;;-144.79;88.62
19827;BME280;10074;52.018;4.726;2023-05-18T16:08:44;46766.66;;;-144.79;87.91
19827;BME280;10074;52.018;4.726;2023-05-18T16:13:45;46784.72;;;-144.79;87.65
19827;BME280;10074;52.018;4.726;2023-05-18T16:18:48;46784.72;;;-144.79;87.38
19827;BME280;10074;52.018;4.726;2023-05-18T16:23:51;46784.72;;;-144.79;86.84
19827;BME280;10074;52.018;4.726;2023-05-18T16:28:51;46802.78;;;-144.79;86.44
19827;BME280;10074;52.018;4.726;2023-05-18T16:33:52;46780.72;;;-144.79;86.44
19827;BME280;10074;52.018;4.726;2023-05-18T16:38:52;46788.72;;;-144.79;86.70
19827;BME280;10074;52.018;4.726;2023-05-18T16:43:53;46796.75;;;-144.79;86.78
19827;BME280;10074;52.018;4.726;2023-05-18T16:48:53;46790.72;;;-144.79;86.86
19827;BME280;10074;52.018;4.726;2023-05-18T16:53:53;46774.69;;;-144.79;87.45
19827;BME280;10074;52.018;4.726;2023-05-18T16:58:54;46800.75;;;-144.79;87.12
19827;BME280;10074;52.018;4.726;2023-05-18T17:03:55;46792.75;;;-144.79;87.08
19827;BME280;10074;52.018;4.726;2023-05-18T17:08:55;46788.72;;;-144.79;87.29
19827;BME280;10074;52.018;4.726;2023-05-18T17:13:58;46810.78;;;-144.79;87.20
19827;BME280;10074;52.018;4.726;2023-05-18T17:19:00;46788.72;;;-144.79;87.78
19827;BME280;10074;52.018;4.726;2023-05-18T17:24:00;46772.69;;;-144.79;87.45
19827;BME280;10074;52.018;4.726;2023-05-18T17:29:01;46766.66;;;-144.79;87.58
19827;BME280;10074;52.018;4.726;2023-05-18T17:34:01;46802.78;;;-144.79;87.42
19827;BME280;10074;52.018;4.726;2023-05-18T17:39:01;46796.75;;;-144.79;87.63
19827;BME280;10074;52.018;4.726;2023-05-18T17:44:03;46784.72;;;-144.79;87.92
19827;BME280;10074;52.018;4.726;2023-05-18T17:49:03;46782.72;;;-144.79;87.87
19827;BME280;10074;52.018;4.726;2023-05-18T17:54:04;46800.75;;;-144.79;88.23
19827;BME280;10074;52.018;4.726;2023-05-18T17:59:05;46788.72;;;-144.79;88.20
19827;BME280;10074;52.018;4.726;2023-05-18T18:04:06;46800.75;;;-144.79;88.89
19827;BME280;10074;52.018;4.726;2023-05-18T18:09:06;46780.72;;;-144.79;89.09
19827;BME280;10074;52.018;4.726;2023-05-18T18:14:06;46788.72;;;-144.79;89.32
19827;BME280;10074;52.018;4.726;2023-05-18T18:19:07;46772.69;;;-144.79;89.75
19827;BME280;10074;52.018;4.726;2023-05-18T18:24:07;46772.69;;;-144.79;90.18
19827;BME280;10074;52.018;4.726;2023-05-18T18:29:07;46758.66;;;-144.79;90.43
19827;BME280;10074;52.018;4.726;2023-05-18T18:34:08;46764.66;;;-144.79;90.66
19827;BME280;10074;52.018;4.726;2023-05-18T18:39:10;46756.66;;;-144.79;91.28
19827;BME280;10074;52.018;4.726;2023-05-18T18:44:11;46752.63;;;-144.79;91.63
19827;BME280;10074;52.018;4.726;2023-05-18T18:49:12;46764.66;;;-144.79;92.03
19827;BME280;10074;52.018;4.726;2023-05-18T18:54:12;46718.53;;;-144.79;92.66
19827;BME280;10074;52.018;4.726;2023-05-18T18:59:13;46704.50;;;-144.79;92.59
19827;BME280;10074;52.018;4.726;2023-05-18T19:04:13;46720.53;;;-144.79;93.07
19827;BME280;10074;52.018;4.726;2023-05-18T19:09:14;46636.31;;;-144.79;94.19
19827;BME280;10074;52.018;4.726;2023-05-18T19:14:14;46642.34;;;-144.79;94.12
19827;BME280;10074;52.018;4.726;2023-05-18T19:19:15;46624.28;;;-144.79;94.58
19827;BME280;10074;52.018;4.726;2023-05-18T19:24:15;46628.31;;;-144.79;94.92
19827;BME280;10074;52.018;4.726;2023-05-18T19:29:16;46534.06;;;-144.79;96.13
19827;BME280;10074;52.018;4.726;2023-05-18T19:34:17;46459.88;;;-144.79;96.83
19827;BME280;10074;52.018;4.726;2023-05-18T19:39:17;46415.75;;;-144.79;97.54
19827;BME280;10074;52.018;4.726;2023-05-18T19:44:18;46379.66;;;-144.79;98.16
19827;BME280;10074;52.018;4.726;2023-05-18T19:49:18;46321.50;;;-144.79;99.23
19827;BME280;10074;52.018;4.726;2023-05-18T19:54:19;46299.47;;;-144.79;99.69
19827;BME280;10074;52.018;4.726;2023-05-18T19:59:19;46291.44;;;-144.79;100.00
19827;BME280;10074;52.018;4.726;2023-05-18T20:04:19;46261.34;;;-144.79;100.00
19827;BME280;10074;52.018;4.726;2023-05-18T20:09:22;46211.22;;;-144.79;100.00
19827;BME280;10074;52.018;4.726;2023-05-18T20:14:22;46201.22;;;-144.79;100.00
19827;BME280;10074;52.018;4.726;2023-05-18T20:19:23;46203.22;;;-144.79;100.00
19827;BME280;10074;52.018;4.726;2023-05-18T20:24:23;46187.19;;;-144.79;100.00
19827;BME280;10074;52.018;4.726;2023-05-18T20:29:24;46157.09;;;-144.79;100.00
19827;BME280;10074;52.018;4.726;2023-05-18T20:34:24;46135.03;;;-144.79;100.00
19827;BME280;10074;52.018;4.726;2023-05-18T20:39:24;46175.16;;;-144.79;100.00
19827;BME280;10074;52.018;4.726;2023-05-18T20:44:25;46163.13;;;-144.79;100.00
19827;BME280;10074;52.018;4.726;2023-05-18T20:49:26;46157.09;;;-144.79;100.00
19827;BME280;10074;52.018;4.726;2023-05-18T20:54:27;46137.06;;;-144.79;100.00
19827;BME280;10074;52.018;4.726;2023-05-18T20:59:27;46139.06;;;-144.79;100.00
19827;BME280;10074;52.018;4.726;2023-05-18T21:04:27;46131.03;;;-144.79;100.00
19827;BME280;10074;52.018;4.726;2023-05-18T21:09:28;46155.09;;;-144.79;100.00
19827;BME280;10074;52.018;4.726;2023-05-18T21:14:30;46151.09;;;-144.79;100.00
19827;BME280;10074;52.018;4.726;2023-05-18T21:19:30;46135.03;;;-144.79;100.00
19827;BME280;10074;52.018;4.726;2023-05-18T21:24:31;46161.09;;;-144.79;100.00
19827;BME280;10074;52.018;4.726;2023-05-18T21:29:31;46147.06;;;-144.79;100.00
19827;BME280;10074;52.018;4.726;2023-05-18T21:34:31;46145.06;;;-144.79;100.00
19827;BME280;10074;52.018;4.726;2023-05-18T21:39:32;46137.06;;;-144.79;100.00
19827;BME280;10074;52.018;4.726;2023-05-18T21:44:32;46129.03;;;-144.79;100.00
19827;BME280;10074;52.018;4.726;2023-05-18T21:49:32;46147.06;;;-144.79;100.00
19827;BME280;10074;52.018;4.726;2023-05-18T21:54:33;46143.06;;;-144.79;100.00
19827;BME280;10074;52.018;4.726;2023-05-18T21:59:34;46137.06;;;-144.79;100.00
19827;BME280;10074;52.018;4.726;2023-05-18T22:04:34;46147.06;;;-144.79;100.00
19827;BME280;10074;52.018;4.726;2023-05-18T22:09:35;46133.03;;;-144.79;100.00
19827;BME280;10074;52.018;4.726;2023-05-18T22:14:35;46147.06;;;-144.79;100.00
19827;BME280;10074;52.018;4.726;2023-05-18T22:19:35;46119.00;;;-144.79;100.00
19827;BME280;10074;52.018;4.726;2023-05-18T22:24:36;46155.09;;;-144.79;100.00
19827;BME280;10074;52.018;4.726;2023-05-18T22:29:36;46135.03;;;-144.79;100.00
19827;BME280;10074;52.018;4.726;2023-05-18T22:34:36;46139.06;;;-144.79;100.00
19827;BME280;10074;52.018;4.726;2023-05-18T22:39:37;46203.22;;;-144.79;100.00
19827;BME280;10074;52.018;4.726;2023-05-18T22:44:38;46155.09;;;-144.79;100.00
19827;BME280;10074;52.018;4.726;2023-05-18T22:49:38;46161.09;;;-144.79;100.00
19827;BME280;10074;52.018;4.726;2023-05-18T22:54:40;46157.09;;;-144.79;100.00
19827;BME280;10074;52.018;4.726;2023-05-18T22:59:40;46131.03;;;-144.79;100.00
19827;BME280;10074;52.018;4.726;2023-05-18T23:04:40;46147.06;;;-144.79;100.00
19827;BME280;10074;52.018;4.726;2023-05-18T23:09:40;46141.06;;;-144.79;100.00
19827;BME280;10074;52.018;4.726;2023-05-18T23:14:41;46117.00;;;-144.79;100.00
19827;BME280;10074;52.018;4.726;2023-05-18T23:19:43;46131.03;;;-144.79;100.00
19827;BME280;10074;52.018;4.726;2023-05-18T23:24:43;46135.03;;;-144.79;100.00
19827;BME280;10074;52.018;4.726;2023-05-18T23:29:44;46137.06;;;-144.79;100.00
19827;BME280;10074;52.018;4.726;2023-05-18T23:34:45;46127.03;;;-144.79;100.00
19827;BME280;10074;52.018;4.726;2023-05-18T23:39:49;46159.09;;;-144.79;100.00
19827;BME280;10074;52.018;4.726;2023-05-18T23:44:51;46135.03;;;-144.79;100.00
19827;BME280;10074;52.018;4.726;2023-05-18T23:49:51;46143.06;;;-144.79;100.00
19827;BME280;10074;52.018;4.726;2023-05-18T23:54:52;46151.09;;;-144.79;100.00
19827;BME280;10074;52.018;4.726;2023-05-18T23:59:54;46159.09;;;-144.79;100.00
